sensor_id;sensor_type;location;lat;lon;timestamp;temperature;humidity
8711;DHT22;4392;47.400;8.062;2022-07-29T00:01:47;26.10;90.20
8711;DHT22;4392;47.400;8.062;2022-07-29T00:04:13;26.10;90.70
8711;DHT22;4392;47.400;8.062;2022-07-29T00:06:38;26.10;90.80
8711;DHT22;4392;47.400;8.062;2022-07-29T00:09:05;26.10;90.40
8711;DHT22;4392;47.400;8.062;2022-07-29T00:11:33;26.10;90.20
8711;DHT22;4392;47.400;8.062;2022-07-29T00:13:59;26.00;90.00
8711;DHT22;4392;47.400;8.062;2022-07-29T00:16:24;26.00;90.00
8711;DHT22;4392;47.400;8.062;2022-07-29T00:18:50;26.00;89.70
8711;DHT22;4392;47.400;8.062;2022-07-29T00:21:16;26.00;89.20
8711;DHT22;4392;47.400;8.062;2022-07-29T00:23:42;26.10;90.10
8711;DHT22;4392;47.400;8.062;2022-07-29T00:26:07;26.00;89.40
8711;DHT22;4392;47.400;8.062;2022-07-29T00:28:33;26.00;90.20
8711;DHT22;4392;47.400;8.062;2022-07-29T00:30:59;26.00;90.30
8711;DHT22;4392;47.400;8.062;2022-07-29T00:33:24;25.80;91.00
8711;DHT22;4392;47.400;8.062;2022-07-29T00:35:50;25.70;91.10
8711;DHT22;4392;47.400;8.062;2022-07-29T00:38:18;25.80;90.30
8711;DHT22;4392;47.400;8.062;2022-07-29T00:40:45;25.80;90.70
8711;DHT22;4392;47.400;8.062;2022-07-29T00:43:13;25.90;89.70
8711;DHT22;4392;47.400;8.062;2022-07-29T00:45:40;25.90;90.30
8711;DHT22;4392;47.400;8.062;2022-07-29T00:48:07;25.80;90.30
8711;DHT22;4392;47.400;8.062;2022-07-29T00:50:34;25.80;90.40
8711;DHT22;4392;47.400;8.062;2022-07-29T00:53:01;25.70;91.00
8711;DHT22;4392;47.400;8.062;2022-07-29T00:55:32;25.70;90.40
8711;DHT22;4392;47.400;8.062;2022-07-29T00:57:58;25.90;90.30
8711;DHT22;4392;47.400;8.062;2022-07-29T01:00:25;25.90;90.10
8711;DHT22;4392;47.400;8.062;2022-07-29T01:02:52;26.00;89.40
8711;DHT22;4392;47.400;8.062;2022-07-29T01:05:23;25.90;90.20
8711;DHT22;4392;47.400;8.062;2022-07-29T01:07:52;25.90;91.20
8711;DHT22;4392;47.400;8.062;2022-07-29T01:10:19;25.90;90.80
8711;DHT22;4392;47.400;8.062;2022-07-29T01:12:48;25.80;92.70
8711;DHT22;4392;47.400;8.062;2022-07-29T01:15:15;25.40;94.50
8711;DHT22;4392;47.400;8.062;2022-07-29T01:31:51;24.50;99.90
8711;DHT22;4392;47.400;8.062;2022-07-29T01:34:27;24.50;99.90
8711;DHT22;4392;47.400;8.062;2022-07-29T01:37:19;24.20;99.90
8711;DHT22;4392;47.400;8.062;2022-07-29T01:39:47;24.30;99.90
8711;DHT22;4392;47.400;8.062;2022-07-29T01:47:33;24.20;99.90
8711;DHT22;4392;47.400;8.062;2022-07-29T01:50:07;24.20;99.90
8711;DHT22;4392;47.400;8.062;2022-07-29T01:52:45;24.10;99.90
8711;DHT22;4392;47.400;8.062;2022-07-29T01:55:16;23.80;99.90
8711;DHT22;4392;47.400;8.062;2022-07-29T01:57:45;23.90;99.90
8711;DHT22;4392;47.400;8.062;2022-07-29T02:00:12;23.90;99.90
8711;DHT22;4392;47.400;8.062;2022-07-29T02:02:41;23.80;99.90
8711;DHT22;4392;47.400;8.062;2022-07-29T02:05:10;23.80;99.90
8711;DHT22;4392;47.400;8.062;2022-07-29T02:07:38;23.80;99.90
8711;DHT22;4392;47.400;8.062;2022-07-29T02:10:07;23.80;99.90
8711;DHT22;4392;47.400;8.062;2022-07-29T02:12:35;23.90;99.90
8711;DHT22;4392;47.400;8.062;2022-07-29T02:15:04;23.90;99.90
8711;DHT22;4392;47.400;8.062;2022-07-29T02:17:41;23.90;99.90
8711;DHT22;4392;47.400;8.062;2022-07-29T02:20:08;24.00;99.90
8711;DHT22;4392;47.400;8.062;2022-07-29T02:22:38;23.90;99.90
8711;DHT22;4392;47.400;8.062;2022-07-29T02:25:05;23.90;99.90
8711;DHT22;4392;47.400;8.062;2022-07-29T02:27:33;23.90;99.90
8711;DHT22;4392;47.400;8.062;2022-07-29T02:30:02;23.90;99.90
8711;DHT22;4392;47.400;8.062;2022-07-29T02:32:30;23.80;99.90
8711;DHT22;4392;47.400;8.062;2022-07-29T02:35:00;23.80;99.90
8711;DHT22;4392;47.400;8.062;2022-07-29T02:37:27;23.80;99.90
8711;DHT22;4392;47.400;8.062;2022-07-29T02:39:56;23.80;99.90
8711;DHT22;4392;47.400;8.062;2022-07-29T02:42:23;23.70;99.90
8711;DHT22;4392;47.400;8.062;2022-07-29T02:44:50;23.70;99.90
8711;DHT22;4392;47.400;8.062;2022-07-29T02:50:09;24.00;99.90
8711;DHT22;4392;47.400;8.062;2022-07-29T02:52:41;24.30;99.90
8711;DHT22;4392;47.400;8.062;2022-07-29T02:55:17;24.50;99.90
8711;DHT22;4392;47.400;8.062;2022-07-29T02:57:49;24.60;99.90
8711;DHT22;4392;47.400;8.062;2022-07-29T03:00:17;24.60;99.90
8711;DHT22;4392;47.400;8.062;2022-07-29T03:02:45;24.70;99.90
8711;DHT22;4392;47.400;8.062;2022-07-29T03:05:20;24.90;99.90
8711;DHT22;4392;47.400;8.062;2022-07-29T03:07:51;24.90;99.90
8711;DHT22;4392;47.400;8.062;2022-07-29T03:10:18;24.90;99.20
8711;DHT22;4392;47.400;8.062;2022-07-29T03:12:44;24.90;99.50
8711;DHT22;4392;47.400;8.062;2022-07-29T03:15:11;24.90;99.30
8711;DHT22;4392;47.400;8.062;2022-07-29T03:17:39;25.00;99.30
8711;DHT22;4392;47.400;8.062;2022-07-29T03:20:07;24.90;99.80
8711;DHT22;4392;47.400;8.062;2022-07-29T03:22:41;24.90;99.40
8711;DHT22;4392;47.400;8.062;2022-07-29T03:25:16;25.00;99.60
8711;DHT22;4392;47.400;8.062;2022-07-29T03:27:42;24.90;99.90
8711;DHT22;4392;47.400;8.062;2022-07-29T03:30:09;24.90;99.90
8711;DHT22;4392;47.400;8.062;2022-07-29T03:32:36;25.00;99.40
8711;DHT22;4392;47.400;8.062;2022-07-29T03:35:03;25.00;99.50
8711;DHT22;4392;47.400;8.062;2022-07-29T03:37:29;25.10;99.10
8711;DHT22;4392;47.400;8.062;2022-07-29T03:39:57;25.10;99.00
8711;DHT22;4392;47.400;8.062;2022-07-29T03:42:30;25.00;99.20
8711;DHT22;4392;47.400;8.062;2022-07-29T03:44:57;25.00;99.30
8711;DHT22;4392;47.400;8.062;2022-07-29T03:47:26;25.00;99.30
8711;DHT22;4392;47.400;8.062;2022-07-29T03:50:00;25.00;98.70
8711;DHT22;4392;47.400;8.062;2022-07-29T03:52:29;25.10;99.00
8711;DHT22;4392;47.400;8.062;2022-07-29T03:54:55;25.00;98.80
8711;DHT22;4392;47.400;8.062;2022-07-29T03:57:25;25.00;99.00
8711;DHT22;4392;47.400;8.062;2022-07-29T03:59:53;24.90;99.10
8711;DHT22;4392;47.400;8.062;2022-07-29T04:02:20;24.90;98.80
8711;DHT22;4392;47.400;8.062;2022-07-29T04:04:47;24.90;99.70
8711;DHT22;4392;47.400;8.062;2022-07-29T04:07:13;24.90;99.10
8711;DHT22;4392;47.400;8.062;2022-07-29T04:09:39;25.00;98.50
8711;DHT22;4392;47.400;8.062;2022-07-29T04:12:05;25.00;98.10
8711;DHT22;4392;47.400;8.062;2022-07-29T04:14:32;25.00;98.70
8711;DHT22;4392;47.400;8.062;2022-07-29T04:16:58;25.10;98.10
8711;DHT22;4392;47.400;8.062;2022-07-29T04:19:24;25.10;98.40
8711;DHT22;4392;47.400;8.062;2022-07-29T04:21:50;25.10;98.70
8711;DHT22;4392;47.400;8.062;2022-07-29T04:24:16;25.10;98.30
8711;DHT22;4392;47.400;8.062;2022-07-29T04:26:45;25.20;98.30
8711;DHT22;4392;47.400;8.062;2022-07-29T04:29:10;25.10;97.90
8711;DHT22;4392;47.400;8.062;2022-07-29T04:31:37;25.10;97.90
8711;DHT22;4392;47.400;8.062;2022-07-29T04:34:03;25.10;98.30
8711;DHT22;4392;47.400;8.062;2022-07-29T04:36:29;25.10;98.30
8711;DHT22;4392;47.400;8.062;2022-07-29T04:38:54;25.10;98.00
8711;DHT22;4392;47.400;8.062;2022-07-29T04:41:20;25.10;99.50
8711;DHT22;4392;47.400;8.062;2022-07-29T04:43:46;25.10;98.80
8711;DHT22;4392;47.400;8.062;2022-07-29T04:46:12;25.10;98.20
8711;DHT22;4392;47.400;8.062;2022-07-29T04:48:37;25.20;98.00
8711;DHT22;4392;47.400;8.062;2022-07-29T04:51:03;25.10;98.10
8711;DHT22;4392;47.400;8.062;2022-07-29T04:53:29;25.10;98.20
8711;DHT22;4392;47.400;8.062;2022-07-29T04:55:55;25.20;98.40
8711;DHT22;4392;47.400;8.062;2022-07-29T04:58:20;25.20;98.10
8711;DHT22;4392;47.400;8.062;2022-07-29T05:00:48;25.20;97.60
8711;DHT22;4392;47.400;8.062;2022-07-29T05:03:14;25.20;97.50
8711;DHT22;4392;47.400;8.062;2022-07-29T05:05:40;25.20;97.40
8711;DHT22;4392;47.400;8.062;2022-07-29T05:08:06;25.30;96.70
8711;DHT22;4392;47.400;8.062;2022-07-29T05:10:32;25.30;97.30
8711;DHT22;4392;47.400;8.062;2022-07-29T05:12:59;25.30;97.10
8711;DHT22;4392;47.400;8.062;2022-07-29T05:15:24;25.20;97.30
8711;DHT22;4392;47.400;8.062;2022-07-29T05:17:50;25.30;97.30
8711;DHT22;4392;47.400;8.062;2022-07-29T05:20:16;25.20;97.30
8711;DHT22;4392;47.400;8.062;2022-07-29T05:22:43;25.30;97.90
8711;DHT22;4392;47.400;8.062;2022-07-29T05:25:09;25.20;98.40
8711;DHT22;4392;47.400;8.062;2022-07-29T05:27:35;24.90;99.80
8711;DHT22;4392;47.400;8.062;2022-07-29T05:30:02;25.00;99.90
8711;DHT22;4392;47.400;8.062;2022-07-29T05:32:28;24.90;99.90
8711;DHT22;4392;47.400;8.062;2022-07-29T05:34:56;24.90;99.90
8711;DHT22;4392;47.400;8.062;2022-07-29T05:37:24;24.80;99.90
8711;DHT22;4392;47.400;8.062;2022-07-29T05:39:50;24.80;99.90
8711;DHT22;4392;47.400;8.062;2022-07-29T05:42:15;24.90;99.90
8711;DHT22;4392;47.400;8.062;2022-07-29T05:44:41;24.90;99.90
8711;DHT22;4392;47.400;8.062;2022-07-29T05:47:07;24.90;99.90
8711;DHT22;4392;47.400;8.062;2022-07-29T05:49:32;25.00;99.90
8711;DHT22;4392;47.400;8.062;2022-07-29T05:51:58;25.00;99.80
8711;DHT22;4392;47.400;8.062;2022-07-29T05:54:24;25.10;99.10
8711;DHT22;4392;47.400;8.062;2022-07-29T05:56:51;25.10;99.30
8711;DHT22;4392;47.400;8.062;2022-07-29T05:59:16;25.20;99.30
8711;DHT22;4392;47.400;8.062;2022-07-29T06:01:42;25.20;98.90
8711;DHT22;4392;47.400;8.062;2022-07-29T06:04:08;25.20;99.40
8711;DHT22;4392;47.400;8.062;2022-07-29T06:06:34;25.10;99.90
8711;DHT22;4392;47.400;8.062;2022-07-29T06:09:01;25.10;99.90
8711;DHT22;4392;47.400;8.062;2022-07-29T06:11:27;25.10;99.90
8711;DHT22;4392;47.400;8.062;2022-07-29T06:13:52;25.00;99.90
8711;DHT22;4392;47.400;8.062;2022-07-29T06:16:18;24.60;99.90
8711;DHT22;4392;47.400;8.062;2022-07-29T06:18:45;24.50;99.90
8711;DHT22;4392;47.400;8.062;2022-07-29T06:21:11;24.30;99.90
8711;DHT22;4392;47.400;8.062;2022-07-29T06:23:38;24.30;99.90
8711;DHT22;4392;47.400;8.062;2022-07-29T06:26:07;24.40;99.90
8711;DHT22;4392;47.400;8.062;2022-07-29T06:28:33;24.40;99.90
8711;DHT22;4392;47.400;8.062;2022-07-29T06:30:59;24.30;99.90
8711;DHT22;4392;47.400;8.062;2022-07-29T06:33:25;24.20;99.90
8711;DHT22;4392;47.400;8.062;2022-07-29T06:35:51;24.40;99.90
8711;DHT22;4392;47.400;8.062;2022-07-29T06:38:19;24.50;99.90
8711;DHT22;4392;47.400;8.062;2022-07-29T06:40:45;24.60;99.90
8711;DHT22;4392;47.400;8.062;2022-07-29T06:43:36;24.80;99.90
8711;DHT22;4392;47.400;8.062;2022-07-29T06:46:16;24.80;99.90
8711;DHT22;4392;47.400;8.062;2022-07-29T06:48:46;24.80;99.90
8711;DHT22;4392;47.400;8.062;2022-07-29T06:51:12;24.50;99.90
8711;DHT22;4392;47.400;8.062;2022-07-29T06:53:39;24.30;99.90
8711;DHT22;4392;47.400;8.062;2022-07-29T06:56:07;24.00;99.90
8711;DHT22;4392;47.400;8.062;2022-07-29T06:58:36;24.00;99.90
8711;DHT22;4392;47.400;8.062;2022-07-29T07:01:03;24.00;99.90
8711;DHT22;4392;47.400;8.062;2022-07-29T07:03:29;24.00;99.90
8711;DHT22;4392;47.400;8.062;2022-07-29T07:05:56;24.00;99.90
8711;DHT22;4392;47.400;8.062;2022-07-29T07:08:22;24.00;99.90
8711;DHT22;4392;47.400;8.062;2022-07-29T07:10:49;23.80;99.90
8711;DHT22;4392;47.400;8.062;2022-07-29T07:13:18;23.80;99.90
8711;DHT22;4392;47.400;8.062;2022-07-29T07:15:48;23.80;99.90
8711;DHT22;4392;47.400;8.062;2022-07-29T07:18:15;23.90;99.90
8711;DHT22;4392;47.400;8.062;2022-07-29T07:20:41;23.90;99.90
8711;DHT22;4392;47.400;8.062;2022-07-29T07:23:07;23.90;99.90
8711;DHT22;4392;47.400;8.062;2022-07-29T07:25:33;23.90;99.90
8711;DHT22;4392;47.400;8.062;2022-07-29T07:27:59;23.90;99.90
8711;DHT22;4392;47.400;8.062;2022-07-29T07:30:24;23.80;99.90
8711;DHT22;4392;47.400;8.062;2022-07-29T07:32:50;23.80;99.90
8711;DHT22;4392;47.400;8.062;2022-07-29T07:35:16;23.80;99.90
8711;DHT22;4392;47.400;8.062;2022-07-29T07:37:42;23.80;99.90
8711;DHT22;4392;47.400;8.062;2022-07-29T07:40:09;23.80;99.90
8711;DHT22;4392;47.400;8.062;2022-07-29T07:42:39;23.80;99.90
8711;DHT22;4392;47.400;8.062;2022-07-29T07:45:08;23.80;99.90
8711;DHT22;4392;47.400;8.062;2022-07-29T07:47:38;23.80;99.90
8711;DHT22;4392;47.400;8.062;2022-07-29T07:50:08;23.70;99.90
8711;DHT22;4392;47.400;8.062;2022-07-29T07:52:49;23.50;99.90
8711;DHT22;4392;47.400;8.062;2022-07-29T07:55:15;23.50;99.90
8711;DHT22;4392;47.400;8.062;2022-07-29T07:57:41;23.60;99.90
8711;DHT22;4392;47.400;8.062;2022-07-29T08:00:07;23.50;99.90
8711;DHT22;4392;47.400;8.062;2022-07-29T08:02:33;23.40;99.90
8711;DHT22;4392;47.400;8.062;2022-07-29T08:04:58;23.40;99.90
8711;DHT22;4392;47.400;8.062;2022-07-29T08:07:25;23.40;99.90
8711;DHT22;4392;47.400;8.062;2022-07-29T08:09:50;23.40;99.90
8711;DHT22;4392;47.400;8.062;2022-07-29T08:12:16;23.40;99.90
8711;DHT22;4392;47.400;8.062;2022-07-29T08:14:43;23.40;99.90
8711;DHT22;4392;47.400;8.062;2022-07-29T08:17:10;23.40;99.90
8711;DHT22;4392;47.400;8.062;2022-07-29T08:19:38;23.40;99.90
8711;DHT22;4392;47.400;8.062;2022-07-29T08:22:06;23.40;99.90
8711;DHT22;4392;47.400;8.062;2022-07-29T08:24:31;23.40;99.90
8711;DHT22;4392;47.400;8.062;2022-07-29T08:27:13;23.50;99.90
8711;DHT22;4392;47.400;8.062;2022-07-29T08:29:39;23.50;99.90
8711;DHT22;4392;47.400;8.062;2022-07-29T08:32:06;23.50;99.90
8711;DHT22;4392;47.400;8.062;2022-07-29T08:34:32;23.60;99.90
8711;DHT22;4392;47.400;8.062;2022-07-29T08:36:58;23.70;99.90
8711;DHT22;4392;47.400;8.062;2022-07-29T08:39:24;23.70;99.90
8711;DHT22;4392;47.400;8.062;2022-07-29T08:41:53;23.70;99.90
8711;DHT22;4392;47.400;8.062;2022-07-29T08:44:20;23.80;99.90
8711;DHT22;4392;47.400;8.062;2022-07-29T08:46:48;23.70;99.90
8711;DHT22;4392;47.400;8.062;2022-07-29T08:49:15;23.80;99.90
8711;DHT22;4392;47.400;8.062;2022-07-29T08:51:41;23.70;99.90
8711;DHT22;4392;47.400;8.062;2022-07-29T08:54:08;23.80;99.90
8711;DHT22;4392;47.400;8.062;2022-07-29T08:56:34;23.90;99.90
8711;DHT22;4392;47.400;8.062;2022-07-29T08:59:06;24.00;99.90
8711;DHT22;4392;47.400;8.062;2022-07-29T09:01:34;23.80;99.90
8711;DHT22;4392;47.400;8.062;2022-07-29T09:04:04;23.80;99.90
8711;DHT22;4392;47.400;8.062;2022-07-29T09:06:32;23.90;99.90
8711;DHT22;4392;47.400;8.062;2022-07-29T09:09:02;24.00;99.90
8711;DHT22;4392;47.400;8.062;2022-07-29T09:11:29;24.00;99.90
8711;DHT22;4392;47.400;8.062;2022-07-29T09:13:57;24.10;99.90
8711;DHT22;4392;47.400;8.062;2022-07-29T09:16:24;24.10;99.90
8711;DHT22;4392;47.400;8.062;2022-07-29T09:18:52;24.00;99.90
8711;DHT22;4392;47.400;8.062;2022-07-29T09:21:18;24.20;99.90
8711;DHT22;4392;47.400;8.062;2022-07-29T09:24:11;24.20;99.90
8711;DHT22;4392;47.400;8.062;2022-07-29T09:26:39;23.70;99.90
8711;DHT22;4392;47.400;8.062;2022-07-29T09:29:14;23.80;99.90
8711;DHT22;4392;47.400;8.062;2022-07-29T09:31:44;24.00;99.90
8711;DHT22;4392;47.400;8.062;2022-07-29T09:34:11;23.60;99.90
8711;DHT22;4392;47.400;8.062;2022-07-29T09:39:10;23.80;99.90
8711;DHT22;4392;47.400;8.062;2022-07-29T09:41:50;24.10;99.90
8711;DHT22;4392;47.400;8.062;2022-07-29T09:44:19;24.30;99.90
8711;DHT22;4392;47.400;8.062;2022-07-29T09:47:02;24.40;99.90
8711;DHT22;4392;47.400;8.062;2022-07-29T09:49:35;24.40;99.90
8711;DHT22;4392;47.400;8.062;2022-07-29T09:52:09;24.50;99.90
8711;DHT22;4392;47.400;8.062;2022-07-29T09:54:35;24.60;99.90
8711;DHT22;4392;47.400;8.062;2022-07-29T09:57:06;24.40;99.90
8711;DHT22;4392;47.400;8.062;2022-07-29T09:59:33;24.10;99.90
8711;DHT22;4392;47.400;8.062;2022-07-29T10:01:59;24.20;99.90
8711;DHT22;4392;47.400;8.062;2022-07-29T10:04:42;24.20;99.90
8711;DHT22;4392;47.400;8.062;2022-07-29T10:07:09;24.40;99.90
8711;DHT22;4392;47.400;8.062;2022-07-29T10:09:35;24.40;99.90
8711;DHT22;4392;47.400;8.062;2022-07-29T10:12:13;24.50;99.90
8711;DHT22;4392;47.400;8.062;2022-07-29T10:14:40;24.60;99.90
8711;DHT22;4392;47.400;8.062;2022-07-29T10:17:08;24.70;99.90
8711;DHT22;4392;47.400;8.062;2022-07-29T10:19:38;24.80;99.90
8711;DHT22;4392;47.400;8.062;2022-07-29T10:22:07;24.80;99.90
8711;DHT22;4392;47.400;8.062;2022-07-29T10:24:37;24.90;99.90
8711;DHT22;4392;47.400;8.062;2022-07-29T10:27:06;24.90;99.90
8711;DHT22;4392;47.400;8.062;2022-07-29T10:29:32;24.90;99.90
8711;DHT22;4392;47.400;8.062;2022-07-29T10:34:45;25.10;96.20
8711;DHT22;4392;47.400;8.062;2022-07-29T10:43:32;25.20;91.80
8711;DHT22;4392;47.400;8.062;2022-07-29T10:46:02;25.10;91.80
8711;DHT22;4392;47.400;8.062;2022-07-29T10:48:29;25.20;91.50
8711;DHT22;4392;47.400;8.062;2022-07-29T10:51:04;25.20;90.90
8711;DHT22;4392;47.400;8.062;2022-07-29T10:53:49;25.30;90.50
8711;DHT22;4392;47.400;8.062;2022-07-29T10:56:29;25.40;89.20
8711;DHT22;4392;47.400;8.062;2022-07-29T11:01:50;25.50;84.90
8711;DHT22;4392;47.400;8.062;2022-07-29T11:07:11;25.50;84.00
8711;DHT22;4392;47.400;8.062;2022-07-29T11:09:38;25.60;83.20
8711;DHT22;4392;47.400;8.062;2022-07-29T11:17:17;25.70;84.00
8711;DHT22;4392;47.400;8.062;2022-07-29T11:19:43;25.80;84.40
8711;DHT22;4392;47.400;8.062;2022-07-29T11:22:11;25.80;83.40
8711;DHT22;4392;47.400;8.062;2022-07-29T11:24:37;25.80;83.00
8711;DHT22;4392;47.400;8.062;2022-07-29T11:27:14;25.80;82.30
8711;DHT22;4392;47.400;8.062;2022-07-29T11:29:48;25.80;81.60
8711;DHT22;4392;47.400;8.062;2022-07-29T11:32:15;25.80;81.00
8711;DHT22;4392;47.400;8.062;2022-07-29T11:34:43;25.90;80.20
8711;DHT22;4392;47.400;8.062;2022-07-29T11:45:59;25.80;82.40
8711;DHT22;4392;47.400;8.062;2022-07-29T11:47:58;25.80;82.20
8711;DHT22;4392;47.400;8.062;2022-07-29T11:50:33;25.80;80.50
8711;DHT22;4392;47.400;8.062;2022-07-29T11:53:00;25.90;79.90
8711;DHT22;4392;47.400;8.062;2022-07-29T11:55:26;25.80;80.10
8711;DHT22;4392;47.400;8.062;2022-07-29T11:57:54;25.90;80.60
8711;DHT22;4392;47.400;8.062;2022-07-29T12:02:54;25.70;75.30
8711;DHT22;4392;47.400;8.062;2022-07-29T12:05:21;25.50;68.90
8711;DHT22;4392;47.400;8.062;2022-07-29T12:07:55;25.40;68.90
8711;DHT22;4392;47.400;8.062;2022-07-29T12:10:21;25.30;66.20
8711;DHT22;4392;47.400;8.062;2022-07-29T12:12:52;25.30;66.00
8711;DHT22;4392;47.400;8.062;2022-07-29T12:15:18;25.30;65.30
8711;DHT22;4392;47.400;8.062;2022-07-29T12:17:47;25.30;65.50
8711;DHT22;4392;47.400;8.062;2022-07-29T12:20:13;25.10;65.00
8711;DHT22;4392;47.400;8.062;2022-07-29T12:22:46;25.20;64.80
8711;DHT22;4392;47.400;8.062;2022-07-29T12:25:14;25.20;64.10
8711;DHT22;4392;47.400;8.062;2022-07-29T12:27:42;25.20;63.70
8711;DHT22;4392;47.400;8.062;2022-07-29T12:30:15;25.10;63.50
8711;DHT22;4392;47.400;8.062;2022-07-29T12:32:50;25.20;64.40
8711;DHT22;4392;47.400;8.062;2022-07-29T12:35:18;25.20;64.30
8711;DHT22;4392;47.400;8.062;2022-07-29T12:37:47;25.40;63.90
8711;DHT22;4392;47.400;8.062;2022-07-29T12:40:16;25.50;63.90
8711;DHT22;4392;47.400;8.062;2022-07-29T12:43:09;25.50;63.90
8711;DHT22;4392;47.400;8.062;2022-07-29T12:45:37;25.50;64.30
8711;DHT22;4392;47.400;8.062;2022-07-29T12:48:05;25.50;62.90
8711;DHT22;4392;47.400;8.062;2022-07-29T12:50:34;25.40;62.80
8711;DHT22;4392;47.400;8.062;2022-07-29T12:53:12;25.20;62.40
8711;DHT22;4392;47.400;8.062;2022-07-29T12:55:44;25.20;62.00
8711;DHT22;4392;47.400;8.062;2022-07-29T12:58:10;25.20;62.00
8711;DHT22;4392;47.400;8.062;2022-07-29T13:00:36;25.20;60.90
8711;DHT22;4392;47.400;8.062;2022-07-29T13:03:02;25.20;61.10
8711;DHT22;4392;47.400;8.062;2022-07-29T13:05:46;25.30;60.60
8711;DHT22;4392;47.400;8.062;2022-07-29T13:08:14;25.10;60.50
8711;DHT22;4392;47.400;8.062;2022-07-29T13:10:40;25.20;60.00
8711;DHT22;4392;47.400;8.062;2022-07-29T13:13:07;25.20;59.80
8711;DHT22;4392;47.400;8.062;2022-07-29T13:15:39;25.30;59.50
8711;DHT22;4392;47.400;8.062;2022-07-29T13:18:32;25.30;59.00
8711;DHT22;4392;47.400;8.062;2022-07-29T13:21:14;25.10;59.50
8711;DHT22;4392;47.400;8.062;2022-07-29T13:23:41;25.20;59.20
8711;DHT22;4392;47.400;8.062;2022-07-29T13:26:11;25.10;59.00
8711;DHT22;4392;47.400;8.062;2022-07-29T13:28:37;24.90;59.90
8711;DHT22;4392;47.400;8.062;2022-07-29T13:31:03;24.90;59.60
8711;DHT22;4392;47.400;8.062;2022-07-29T13:33:30;25.00;59.80
8711;DHT22;4392;47.400;8.062;2022-07-29T13:35:56;25.00;59.90
8711;DHT22;4392;47.400;8.062;2022-07-29T13:38:24;24.90;60.40
8711;DHT22;4392;47.400;8.062;2022-07-29T13:40:52;24.90;60.50
8711;DHT22;4392;47.400;8.062;2022-07-29T13:43:17;25.00;60.20
8711;DHT22;4392;47.400;8.062;2022-07-29T13:45:43;25.10;60.10
8711;DHT22;4392;47.400;8.062;2022-07-29T13:48:10;24.90;60.40
8711;DHT22;4392;47.400;8.062;2022-07-29T13:50:36;24.90;60.40
8711;DHT22;4392;47.400;8.062;2022-07-29T13:53:04;24.90;60.00
8711;DHT22;4392;47.400;8.062;2022-07-29T13:55:30;24.90;60.30
8711;DHT22;4392;47.400;8.062;2022-07-29T13:57:55;24.80;60.10
8711;DHT22;4392;47.400;8.062;2022-07-29T14:00:23;24.90;59.90
8711;DHT22;4392;47.400;8.062;2022-07-29T14:02:49;24.90;59.30
8711;DHT22;4392;47.400;8.062;2022-07-29T14:05:15;24.80;59.40
8711;DHT22;4392;47.400;8.062;2022-07-29T14:07:41;24.80;60.30
8711;DHT22;4392;47.400;8.062;2022-07-29T14:10:07;24.60;59.70
8711;DHT22;4392;47.400;8.062;2022-07-29T14:12:33;24.70;59.90
8711;DHT22;4392;47.400;8.062;2022-07-29T14:14:59;24.60;60.00
8711;DHT22;4392;47.400;8.062;2022-07-29T14:17:27;24.70;60.20
8711;DHT22;4392;47.400;8.062;2022-07-29T14:19:53;24.80;60.00
8711;DHT22;4392;47.400;8.062;2022-07-29T14:22:18;24.80;60.00
8711;DHT22;4392;47.400;8.062;2022-07-29T14:24:45;24.90;59.70
8711;DHT22;4392;47.400;8.062;2022-07-29T14:27:10;25.00;59.30
8711;DHT22;4392;47.400;8.062;2022-07-29T14:29:37;25.00;59.10
8711;DHT22;4392;47.400;8.062;2022-07-29T14:32:03;25.00;59.30
8711;DHT22;4392;47.400;8.062;2022-07-29T14:34:29;24.90;60.60
8711;DHT22;4392;47.400;8.062;2022-07-29T14:36:55;24.70;61.40
8711;DHT22;4392;47.400;8.062;2022-07-29T14:39:24;24.70;61.30
8711;DHT22;4392;47.400;8.062;2022-07-29T14:41:52;24.70;62.00
8711;DHT22;4392;47.400;8.062;2022-07-29T14:44:18;24.70;63.20
8711;DHT22;4392;47.400;8.062;2022-07-29T14:46:44;24.60;66.30
8711;DHT22;4392;47.400;8.062;2022-07-29T14:49:09;24.60;68.90
8711;DHT22;4392;47.400;8.062;2022-07-29T14:51:36;24.60;75.00
8711;DHT22;4392;47.400;8.062;2022-07-29T14:54:02;24.60;78.80
8711;DHT22;4392;47.400;8.062;2022-07-29T14:56:28;24.60;83.30
8711;DHT22;4392;47.400;8.062;2022-07-29T14:58:56;24.50;86.40
8711;DHT22;4392;47.400;8.062;2022-07-29T15:01:23;24.40;90.30
8711;DHT22;4392;47.400;8.062;2022-07-29T15:03:49;24.40;93.40
8711;DHT22;4392;47.400;8.062;2022-07-29T15:06:15;24.30;97.10
8711;DHT22;4392;47.400;8.062;2022-07-29T15:08:41;24.30;99.50
8711;DHT22;4392;47.400;8.062;2022-07-29T15:11:07;24.30;99.90
8711;DHT22;4392;47.400;8.062;2022-07-29T15:13:33;24.20;99.90
8711;DHT22;4392;47.400;8.062;2022-07-29T15:15:59;24.10;99.90
8711;DHT22;4392;47.400;8.062;2022-07-29T15:18:25;24.10;99.90
8711;DHT22;4392;47.400;8.062;2022-07-29T15:20:51;24.10;99.90
8711;DHT22;4392;47.400;8.062;2022-07-29T15:23:16;23.90;99.90
8711;DHT22;4392;47.400;8.062;2022-07-29T15:25:42;23.90;99.90
8711;DHT22;4392;47.400;8.062;2022-07-29T15:28:08;23.80;99.90
8711;DHT22;4392;47.400;8.062;2022-07-29T15:30:35;23.80;99.90
8711;DHT22;4392;47.400;8.062;2022-07-29T15:33:06;23.80;99.90
8711;DHT22;4392;47.400;8.062;2022-07-29T15:35:33;23.80;99.90
8711;DHT22;4392;47.400;8.062;2022-07-29T15:37:59;23.70;99.90
8711;DHT22;4392;47.400;8.062;2022-07-29T15:40:24;23.70;99.90
8711;DHT22;4392;47.400;8.062;2022-07-29T15:42:50;23.70;99.90
8711;DHT22;4392;47.400;8.062;2022-07-29T15:45:16;23.80;99.90
8711;DHT22;4392;47.400;8.062;2022-07-29T15:47:43;23.70;99.90
8711;DHT22;4392;47.400;8.062;2022-07-29T15:50:09;23.70;99.90
8711;DHT22;4392;47.400;8.062;2022-07-29T15:52:41;23.70;99.90
8711;DHT22;4392;47.400;8.062;2022-07-29T15:55:08;23.70;99.90
8711;DHT22;4392;47.400;8.062;2022-07-29T15:57:34;23.70;99.90
8711;DHT22;4392;47.400;8.062;2022-07-29T16:00:00;23.70;99.90
8711;DHT22;4392;47.400;8.062;2022-07-29T16:02:25;23.70;99.90
8711;DHT22;4392;47.400;8.062;2022-07-29T16:04:51;23.70;99.90
8711;DHT22;4392;47.400;8.062;2022-07-29T16:07:17;23.70;99.90
8711;DHT22;4392;47.400;8.062;2022-07-29T16:09:43;23.70;99.90
8711;DHT22;4392;47.400;8.062;2022-07-29T16:12:09;23.60;99.90
8711;DHT22;4392;47.400;8.062;2022-07-29T16:14:35;23.70;99.90
8711;DHT22;4392;47.400;8.062;2022-07-29T16:17:00;23.80;99.90
8711;DHT22;4392;47.400;8.062;2022-07-29T16:19:29;23.90;99.90
8711;DHT22;4392;47.400;8.062;2022-07-29T16:21:55;24.00;99.90
8711;DHT22;4392;47.400;8.062;2022-07-29T16:24:21;24.00;99.90
8711;DHT22;4392;47.400;8.062;2022-07-29T16:26:49;24.00;99.90
8711;DHT22;4392;47.400;8.062;2022-07-29T16:29:16;24.10;99.90
8711;DHT22;4392;47.400;8.062;2022-07-29T16:31:43;24.20;99.90
8711;DHT22;4392;47.400;8.062;2022-07-29T16:34:09;24.20;99.90
8711;DHT22;4392;47.400;8.062;2022-07-29T16:36:35;24.30;99.90
8711;DHT22;4392;47.400;8.062;2022-07-29T16:39:00;24.50;99.90
8711;DHT22;4392;47.400;8.062;2022-07-29T16:41:26;24.80;99.90
8711;DHT22;4392;47.400;8.062;2022-07-29T16:43:53;25.10;99.90
8711;DHT22;4392;47.400;8.062;2022-07-29T16:46:19;25.30;99.90
8711;DHT22;4392;47.400;8.062;2022-07-29T16:48:46;25.40;99.90
8711;DHT22;4392;47.400;8.062;2022-07-29T16:51:12;25.40;99.90
8711;DHT22;4392;47.400;8.062;2022-07-29T16:53:38;25.50;99.40
8711;DHT22;4392;47.400;8.062;2022-07-29T16:56:04;25.40;99.90
8711;DHT22;4392;47.400;8.062;2022-07-29T16:58:29;25.00;99.90
8711;DHT22;4392;47.400;8.062;2022-07-29T17:00:58;25.10;99.90
8711;DHT22;4392;47.400;8.062;2022-07-29T17:03:27;25.10;99.90